createdAt,value
2018-09-14T00:03:14.470Z,56.80
2018-09-14T00:13:49.367Z,56.70
2018-09-14T00:18:53.420Z,56.70
2018-09-14T00:23:57.251Z,56.60
2018-09-14T00:39:56.979Z,56.60
2018-09-14T00:45:00.684Z,56.50
2018-09-14T00:50:04.907Z,56.50
2018-09-14T00:55:08.808Z,57.30
2018-09-14T01:00:12.584Z,56.50
2018-09-14T01:05:16.424Z,56.50
2018-09-14T01:10:20.319Z,56.40
2018-09-14T01:15:24.128Z,56.50
2018-09-14T01:20:28.023Z,56.40
2018-09-14T01:25:32.237Z,56.50
2018-09-14T01:30:36.080Z,56.40
2018-09-14T01:35:59.172Z,56.40
2018-09-14T01:41:03.413Z,56.30
2018-09-14T01:46:07.814Z,56.30
2018-09-14T01:51:11.832Z,56.30
2018-09-14T01:56:15.751Z,56.30
2018-09-14T02:01:20.469Z,56.30
2018-09-14T02:06:25.875Z,56.20
2018-09-14T02:11:29.579Z,56.30
2018-09-14T02:16:33.912Z,56.20
2018-09-14T02:21:37.616Z,56.20
2018-09-14T02:26:42.245Z,56.20
2018-09-14T02:31:46.193Z,56.20
2018-09-14T02:36:50.442Z,56.20
2018-09-14T02:41:54.071Z,56.10
2018-09-14T02:46:57.884Z,56.20
2018-09-14T02:52:02.518Z,56.10
2018-09-14T02:57:06.476Z,56.00
2018-09-14T03:02:10.582Z,56.00
2018-09-14T03:07:14.735Z,55.70
2018-09-14T03:12:18.573Z,56.00
2018-09-14T03:17:22.399Z,56.10
2018-09-14T03:22:26.253Z,56.00
2018-09-14T03:27:30.152Z,56.00
2018-09-14T03:32:34.091Z,56.00
2018-09-14T03:43:07.356Z,55.90
2018-09-14T03:48:12.000Z,55.90
2018-09-14T03:53:15.793Z,55.90
2018-09-14T03:58:19.691Z,55.90
2018-09-14T04:03:23.978Z,55.90
2018-09-14T04:08:52.185Z,55.90
2018-09-14T04:13:57.285Z,55.90
2018-09-14T04:24:32.679Z,55.80
2018-09-14T04:29:37.501Z,55.80
2018-09-14T04:34:41.234Z,55.80
2018-09-14T04:39:45.028Z,55.70
2018-09-14T04:44:48.879Z,55.70
2018-09-14T04:49:52.911Z,55.70
2018-09-14T04:54:56.853Z,55.80
2018-09-14T05:00:00.707Z,55.70
2018-09-14T05:05:04.673Z,56.30
2018-09-14T05:16:00.303Z,55.70
2018-09-14T05:21:04.324Z,55.70
2018-09-14T05:26:08.183Z,55.60
2018-09-14T05:31:12.146Z,55.70
2018-09-14T05:36:15.969Z,55.60
2018-09-14T05:41:19.687Z,55.60
2018-09-14T05:46:23.638Z,55.70
2018-09-14T05:51:27.447Z,55.60
2018-09-14T06:01:59.943Z,55.70
2018-09-14T06:07:03.657Z,55.70
2018-09-14T06:12:07.728Z,55.70
2018-09-14T06:17:11.949Z,55.80
2018-09-14T06:22:15.528Z,55.80
2018-09-14T06:27:19.558Z,55.70
2018-09-14T06:32:23.729Z,55.80
2018-09-14T06:37:27.597Z,55.90
2018-09-14T06:42:31.463Z,55.90
2018-09-14T06:47:35.343Z,56.00
2018-09-14T06:52:39.303Z,56.10
2018-09-14T07:36:24.311Z,56.80
2018-09-14T07:41:28.348Z,56.90
2018-09-14T07:46:32.083Z,57.00
2018-09-14T07:51:35.842Z,57.00
2018-09-14T07:56:39.527Z,57.00
2018-09-14T08:01:43.219Z,57.10
2018-09-14T08:06:46.891Z,57.10
2018-09-14T08:11:50.658Z,57.10
2018-09-14T08:16:54.360Z,57.30
2018-09-14T08:21:58.241Z,57.90
2018-09-14T08:27:02.108Z,57.80
2018-09-14T08:32:06.153Z,57.40
2018-09-14T08:37:09.862Z,57.30
2018-09-14T08:42:13.465Z,57.30
2018-09-14T08:47:17.163Z,57.30
2018-09-14T08:52:20.826Z,57.20
2018-09-14T09:08:22.980Z,57.20
2018-09-14T09:35:29.661Z,56.80
2018-09-14T09:40:33.470Z,56.70
2018-09-14T09:45:37.612Z,56.50
2018-09-14T09:50:41.585Z,56.40
2018-09-14T09:55:45.308Z,56.30
2018-09-14T10:00:54.246Z,55.90
2018-09-14T10:17:10.558Z,55.80
2018-09-14T10:22:14.267Z,55.50
2018-09-14T10:27:18.303Z,55.50
2018-09-14T10:32:22.368Z,55.30
2018-09-14T10:48:28.212Z,55.40
2018-09-14T10:53:31.831Z,55.50
2018-09-14T10:58:40.914Z,55.40
2018-09-14T11:03:49.734Z,55.50
2018-09-14T11:09:11.851Z,55.50
2018-09-14T11:14:15.440Z,55.00
2018-09-14T11:19:34.851Z,54.90
2018-09-14T11:24:38.569Z,54.90
2018-09-14T11:29:42.595Z,55.00
2018-09-14T11:34:46.415Z,54.60
2018-09-14T11:39:50.067Z,54.60
2018-09-14T11:44:53.857Z,54.30
2018-09-14T11:49:57.530Z,54.10
2018-09-14T11:55:01.700Z,54.00
2018-09-14T12:00:05.742Z,53.90
2018-09-14T12:05:09.841Z,53.70
2018-09-14T12:10:13.682Z,53.90
2018-09-14T12:15:31.584Z,53.50
2018-09-14T12:20:35.637Z,53.30
2018-09-14T12:25:39.770Z,53.10
2018-09-14T12:30:43.430Z,52.90
2018-09-14T12:35:47.707Z,52.90
2018-09-14T12:40:51.567Z,52.80
2018-09-14T13:02:20.114Z,52.40
2018-09-14T13:07:24.103Z,52.40
2018-09-14T13:12:50.348Z,52.60
2018-09-14T13:34:19.219Z,52.20
2018-09-14T14:12:10.506Z,51.50
2018-09-14T14:17:14.514Z,51.80
2018-09-14T14:22:18.312Z,51.70
2018-09-14T14:27:22.109Z,51.40
2018-09-14T14:32:26.040Z,51.20
2018-09-14T14:37:29.881Z,51.40
2018-09-14T14:42:33.658Z,51.10
2018-09-14T14:47:37.399Z,51.00
2018-09-14T14:52:41.429Z,51.00
2018-09-14T14:57:45.423Z,50.60
2018-09-14T15:02:49.247Z,50.40
2018-09-14T15:07:53.075Z,50.40
2018-09-14T15:13:06.608Z,50.40
2018-09-14T15:18:10.606Z,50.50
2018-09-14T15:23:14.307Z,50.40
2018-09-14T15:28:23.343Z,50.20
2018-09-14T15:33:27.137Z,50.20
2018-09-14T15:38:31.114Z,49.90
2018-09-14T15:43:34.980Z,49.90
2018-09-14T15:48:38.613Z,49.70
2018-09-14T15:53:42.451Z,49.80
2018-09-14T15:58:53.554Z,49.70
2018-09-14T16:04:01.412Z,49.70
2018-09-14T16:09:07.904Z,49.30
2018-09-14T16:14:11.551Z,49.30
2018-09-14T16:24:49.122Z,49.10
2018-09-14T16:29:52.942Z,48.90
2018-09-14T16:34:57.030Z,48.70
2018-09-14T16:40:00.784Z,48.80
2018-09-14T16:45:04.500Z,48.70
2018-09-14T16:55:36.355Z,48.70
2018-09-14T17:06:08.660Z,48.70
2018-09-14T17:11:12.352Z,48.80
2018-09-14T17:16:15.931Z,48.70
2018-09-14T17:21:20.066Z,48.80
2018-09-14T17:26:24.285Z,48.90
2018-09-14T17:31:28.215Z,48.80
2018-09-14T17:36:32.141Z,49.10
2018-09-14T17:41:35.844Z,49.30
2018-09-14T17:46:39.656Z,49.50
2018-09-14T17:51:43.229Z,49.60
2018-09-14T17:56:46.912Z,49.60
2018-09-14T18:01:50.645Z,49.70
2018-09-14T18:06:54.382Z,50.00
2018-09-14T18:11:58.144Z,50.20
2018-09-14T18:17:01.752Z,50.30
2018-09-14T18:22:05.575Z,50.30
2018-09-14T18:27:09.116Z,50.60
2018-09-14T18:32:13.066Z,50.60
2018-09-14T18:37:16.779Z,50.80
2018-09-14T18:42:20.805Z,50.90
2018-09-14T18:47:24.985Z,51.00
2018-09-14T18:52:29.180Z,50.90
2018-09-14T18:57:32.888Z,50.80
2018-09-14T19:02:36.880Z,50.80
2018-09-14T19:07:41.190Z,51.20
2018-09-14T19:12:45.426Z,50.80
2018-09-14T19:29:07.483Z,50.80
2018-09-14T19:34:11.864Z,50.80
2018-09-14T19:39:34.087Z,50.80
2018-09-14T19:44:38.060Z,50.80
2018-09-14T19:49:41.983Z,50.70
2018-09-14T19:54:45.791Z,50.80
2018-09-14T19:59:49.415Z,50.80
2018-09-14T20:04:53.235Z,50.80
2018-09-14T20:15:43.604Z,50.80
2018-09-14T20:20:47.766Z,50.90
2018-09-14T20:25:51.703Z,50.90
2018-09-14T20:30:55.482Z,50.90
2018-09-14T20:35:59.547Z,51.00
2018-09-14T20:41:03.395Z,51.00
2018-09-14T20:46:07.423Z,51.10
2018-09-14T20:51:11.504Z,51.10
2018-09-14T20:56:15.297Z,51.10
2018-09-14T21:01:19.235Z,51.10
2018-09-14T21:06:23.492Z,51.20
2018-09-14T21:11:28.475Z,51.10
2018-09-14T21:16:32.419Z,51.30
2018-09-14T21:21:36.218Z,51.20
2018-09-14T21:26:40.096Z,51.30
2018-09-14T21:31:43.924Z,51.30
2018-09-14T21:36:47.718Z,51.30
2018-09-14T21:41:51.636Z,51.40
2018-09-14T21:46:55.463Z,51.50
2018-09-14T21:51:59.547Z,51.50
2018-09-14T21:57:03.278Z,51.60
2018-09-14T22:02:07.452Z,51.70
2018-09-14T22:07:11.537Z,51.60
2018-09-14T22:12:15.271Z,51.70
2018-09-14T22:17:19.698Z,51.70
2018-09-14T22:22:23.755Z,51.80
2018-09-14T22:27:27.762Z,51.80
2018-09-14T22:32:32.117Z,51.80
2018-09-14T22:37:49.435Z,51.80
2018-09-14T22:42:53.544Z,51.80
2018-09-14T22:47:57.407Z,51.80
2018-09-14T22:53:01.777Z,51.90
2018-09-14T22:58:05.967Z,51.90
2018-09-14T23:03:10.190Z,52.00
2018-09-14T23:08:13.899Z,52.00
2018-09-14T23:13:17.830Z,52.00
2018-09-14T23:18:21.774Z,52.00
2018-09-14T23:23:25.824Z,52.20
2018-09-14T23:28:30.636Z,52.10
2018-09-14T23:33:34.505Z,52.10
2018-09-14T23:38:56.615Z,52.20
2018-09-14T23:44:00.223Z,52.20
2018-09-14T23:54:32.160Z,52.20
2018-09-14T23:59:36.268Z,52.20
